Time;durP1;ratioP1;P1;durP2;ratioP2;P2;SDS_P1;SDS_P2;PMS_P1;PMS_P2;Temp;Humidity;BMP_temperature;BMP_pressure;BME280_temperature;BME280_humidity;BME280_pressure;Samples;Min_cycle;Max_cycle;Signal;HPM_P1;HPM_P2
2024/04/19 00:01:05;;;;;;;9.55;2.42;;;;;;;10.69;100.00;101606.50;5631074;26;20010;-72
2024/04/19 00:03:35;;;;;;;7.95;2.97;;;;;;;10.69;100.00;101596.63;5634198;26;20010;-72
2024/04/19 00:06:06;;;;;;;5.45;2.70;;;;;;;10.53;100.00;101585.69;5634289;26;19995;-71
2024/04/19 00:08:36;;;;;;;10.10;2.88;;;;;;;10.55;100.00;101591.75;5635739;26;20003;-71
2024/04/19 00:11:07;;;;;;;12.05;2.88;;;;;;;10.62;100.00;101585.66;5636436;26;20006;-71
2024/04/19 00:13:37;;;;;;;8.55;3.00;;;;;;;10.56;100.00;101586.25;5635695;26;20068;-71
2024/04/19 00:16:08;;;;;;;10.23;2.63;;;;;;;10.72;100.00;101577.53;5636411;26;20006;-72
2024/04/19 00:18:38;;;;;;;8.70;2.85;;;;;;;10.69;100.00;101583.19;5635993;26;19999;-71
2024/04/19 00:21:09;;;;;;;4.85;2.53;;;;;;;10.71;100.00;101569.66;5636390;26;20002;-71
2024/04/19 00:23:39;;;;;;;4.90;2.85;;;;;;;10.72;100.00;101568.66;5636554;26;20018;-72
2024/04/19 00:26:10;;;;;;;8.75;2.97;;;;;;;10.74;100.00;101561.28;5637509;26;20360;-72
2024/04/19 00:28:40;;;;;;;5.20;2.90;;;;;;;10.71;100.00;101561.59;5636919;26;20067;-71
2024/04/19 00:31:11;;;;;;;7.57;3.22;;;;;;;10.74;100.00;101564.81;5635881;26;20075;-72
2024/04/19 00:33:41;;;;;;;8.57;3.38;;;;;;;10.71;100.00;101567.81;5635438;26;19990;-72
2024/04/19 00:36:12;;;;;;;10.52;3.40;;;;;;;10.78;100.00;101555.47;5637793;26;20132;-72
2024/04/19 00:38:42;;;;;;;11.35;3.72;;;;;;;10.77;100.00;101561.84;5635596;26;20006;-71
2024/04/19 00:41:13;;;;;;;5.57;3.17;;;;;;;10.73;100.00;101546.19;5634712;26;20015;-71
2024/04/19 00:43:43;;;;;;;12.85;3.70;;;;;;;10.74;100.00;101551.38;5636091;26;19995;-71
2024/04/19 00:46:15;;;;;;;8.38;3.10;;;;;;;10.71;100.00;101543.66;5636442;26;20017;-72
2024/04/19 00:48:46;;;;;;;7.35;3.25;;;;;;;10.67;100.00;101546.78;5633291;26;19995;-71
2024/04/19 00:51:18;;;;;;;8.25;3.35;;;;;;;10.72;100.00;101544.50;5636492;26;20003;-71
2024/04/19 00:53:49;;;;;;;8.13;2.95;;;;;;;10.74;100.00;101532.59;5635378;26;20007;-71
2024/04/19 00:56:20;;;;;;;6.88;2.70;;;;;;;10.75;100.00;101528.94;5637297;26;20013;-71
2024/04/19 00:58:51;;;;;;;9.23;3.30;;;;;;;10.57;100.00;101520.84;5634965;26;20025;-71
2024/04/19 01:01:22;;;;;;;8.95;3.28;;;;;;;10.56;100.00;101518.31;5636640;26;19995;-71
2024/04/19 01:03:54;;;;;;;13.15;3.72;;;;;;;10.60;100.00;101512.50;5637236;26;19998;-72
2024/04/19 01:06:31;;;;;;;6.80;3.28;;;;;;;10.47;100.00;101508.50;5637080;26;19999;-72
2024/04/19 01:09:03;;;;;;;11.77;4.53;;;;;;;10.51;100.00;101493.78;5634845;26;20003;-72
2024/04/19 01:11:34;;;;;;;11.25;4.25;;;;;;;10.52;100.00;101490.09;5634772;26;20017;-72
2024/04/19 01:14:05;;;;;;;9.00;3.78;;;;;;;10.45;100.00;101489.03;5636622;26;19995;-72
2024/04/19 01:16:35;;;;;;;14.40;4.60;;;;;;;10.36;100.00;101482.72;5636978;26;20027;-72
2024/04/19 01:19:07;;;;;;;9.45;3.70;;;;;;;10.32;100.00;101484.00;5634985;26;20022;-72
2024/04/19 01:21:39;;;;;;;11.95;4.68;;;;;;;10.28;100.00;101480.75;5628113;26;20097;-72
2024/04/19 01:24:30;;;;;;;7.45;3.55;;;;;;;10.19;100.00;101476.28;5636662;26;20440;-72
2024/04/19 01:27:00;;;;;;;13.00;4.40;;;;;;;10.16;100.00;101467.69;5634205;26;20389;-72
2024/04/19 01:29:31;;;;;;;13.55;4.93;;;;;;;10.10;100.00;101461.09;5636457;26;20025;-72
2024/04/19 01:32:03;;;;;;;10.50;4.32;;;;;;;10.23;100.00;101471.44;5634508;26;20007;-72
2024/04/19 01:34:33;;;;;;;12.30;4.65;;;;;;;10.22;100.00;101467.09;5636468;26;19999;-72
2024/04/19 01:37:04;;;;;;;12.52;4.18;;;;;;;10.21;100.00;101468.09;5635140;26;20079;-72
2024/04/19 01:39:34;;;;;;;11.00;4.78;;;;;;;10.12;100.00;101467.13;5633922;26;19995;-72
2024/04/19 01:42:05;;;;;;;16.55;5.18;;;;;;;10.07;100.00;101464.88;5634581;26;19995;-73
2024/04/19 01:44:35;;;;;;;15.80;5.15;;;;;;;10.06;100.00;101455.16;5635382;26;19998;-72
2024/04/19 01:47:06;;;;;;;12.70;4.55;;;;;;;10.03;100.00;101451.91;5635504;26;19999;-72
2024/04/19 01:49:38;;;;;;;12.02;5.00;;;;;;;9.97;100.00;101437.28;5627244;26;20458;-72
2024/04/19 01:52:09;;;;;;;17.40;5.78;;;;;;;9.92;100.00;101431.53;5631947;26;20563;-72
2024/04/19 01:54:39;;;;;;;16.98;5.38;;;;;;;9.87;100.00;101431.13;5635696;26;19994;-72
2024/04/19 01:57:10;;;;;;;16.50;5.50;;;;;;;9.88;100.00;101422.06;5635557;26;20440;-72
2024/04/19 01:59:41;;;;;;;12.95;5.55;;;;;;;9.83;100.00;101411.81;5636040;26;20017;-72
2024/04/19 02:02:12;;;;;;;20.42;5.18;;;;;;;9.79;100.00;101405.06;5634717;26;20463;-72
2024/04/19 02:04:47;;;;;;;13.13;5.20;;;;;;;9.82;100.00;101396.72;5635776;26;20501;-72
2024/04/19 02:07:18;;;;;;;15.90;4.78;;;;;;;9.72;100.00;101392.41;5635411;26;20014;-73
2024/04/19 02:09:48;;;;;;;15.18;4.53;;;;;;;9.77;100.00;101384.75;5628004;26;20333;-73
2024/04/19 02:12:19;;;;;;;10.10;4.47;;;;;;;9.80;100.00;101377.28;5630307;26;20002;-72
2024/04/19 02:14:51;;;;;;;12.80;4.53;;;;;;;9.77;100.00;101376.72;5635432;26;19995;-72
2024/04/19 02:17:22;;;;;;;10.15;4.18;;;;;;;9.75;100.00;101368.00;5629851;26;20030;-72
2024/04/19 02:19:52;;;;;;;13.73;4.13;;;;;;;9.68;100.00;101370.41;5630184;26;20018;-73
2024/04/19 02:22:23;;;;;;;15.23;4.85;;;;;;;9.70;100.00;101371.13;5632312;26;20003;-72
2024/04/19 02:24:54;;;;;;;14.80;4.32;;;;;;;9.77;100.00;101360.66;5635459;26;20010;-72
2024/04/19 02:33:03;;;;;;;10.10;4.80;;;;;;;9.71;100.00;101356.72;5634313;26;20014;-72
2024/04/19 02:35:34;;;;;;;11.50;4.10;;;;;;;9.76;100.00;101353.59;5635342;26;20448;-72
2024/04/19 02:38:05;;;;;;;10.95;4.57;;;;;;;9.77;100.00;101349.94;5635320;26;19994;-72
2024/04/19 02:40:35;;;;;;;13.32;4.60;;;;;;;9.79;100.00;101353.31;5633271;26;20003;-72
2024/04/19 02:43:06;;;;;;;11.68;4.22;;;;;;;9.77;100.00;101340.03;5634739;26;20021;-72
2024/04/19 02:45:41;;;;;;;9.05;4.70;;;;;;;9.75;100.00;101344.72;5635577;26;19995;-72
2024/04/19 02:48:11;;;;;;;10.38;4.70;;;;;;;9.78;100.00;101341.72;5635124;26;20545;-73
2024/04/19 02:50:41;;;;;;;12.23;4.30;;;;;;;9.70;100.00;101330.09;5629156;26;20007;-72
2024/04/19 02:53:12;;;;;;;7.53;4.47;;;;;;;9.65;100.00;101324.34;5635239;26;20015;-72
2024/04/19 02:55:43;;;;;;;16.17;4.82;;;;;;;9.77;100.00;101329.34;5633993;26;20007;-73
2024/04/19 02:58:14;;;;;;;17.00;5.63;;;;;;;9.75;100.00;101319.78;5629449;26;20265;-72
2024/04/19 03:00:44;;;;;;;11.80;5.50;;;;;;;9.77;100.00;101317.78;5633826;26;20328;-72
2024/04/19 03:03:15;;;;;;;15.55;5.05;;;;;;;9.73;100.00;101305.66;5634828;26;20097;-73
2024/04/19 03:05:46;;;;;;;14.65;4.80;;;;;;;9.73;100.00;101305.66;5634881;26;20006;-72
2024/04/19 03:08:17;;;;;;;12.07;5.10;;;;;;;9.70;100.00;101304.13;5628370;26;20018;-72
2024/04/19 03:10:47;;;;;;;14.70;5.15;;;;;;;9.71;100.00;101295.09;5633265;26;20518;-72
2024/04/19 03:13:18;;;;;;;11.15;5.45;;;;;;;9.61;100.00;101286.28;5634884;26;20015;-72
2024/04/19 03:15:49;;;;;;;11.27;4.30;;;;;;;9.67;100.00;101285.69;5629891;26;20068;-72
2024/04/19 03:18:19;;;;;;;13.70;5.18;;;;;;;9.68;100.00;101265.09;5634395;26;20031;-72
2024/04/19 03:20:58;;;;;;;8.55;4.13;;;;;;;9.75;100.00;101268.88;5633299;26;19999;-72
2024/04/19 03:23:28;;;;;;;13.40;3.78;;;;;;;9.62;100.00;101266.53;5634768;26;19991;-72
2024/04/19 03:26:00;;;;;;;11.63;4.90;;;;;;;9.52;100.00;101263.91;5634593;26;20075;-72
2024/04/19 03:28:31;;;;;;;8.68;4.57;;;;;;;9.49;100.00;101256.19;5632502;26;19998;-72
2024/04/19 03:31:01;;;;;;;13.13;4.65;;;;;;;9.56;100.00;101254.59;5632733;26;20006;-72
2024/04/19 03:33:32;;;;;;;12.25;4.93;;;;;;;9.60;100.00;101249.78;5634200;26;20006;-72
2024/04/19 03:36:05;;;;;;;9.90;4.30;;;;;;;9.60;100.00;101252.44;5631688;26;20029;-72
2024/04/19 03:38:35;;;;;;;9.70;4.18;;;;;;;9.55;100.00;101241.34;5628778;26;20003;-72
2024/04/19 03:41:06;;;;;;;9.40;4.07;;;;;;;9.54;100.00;101229.78;5632881;26;19999;-72
2024/04/19 03:43:40;;;;;;;11.30;4.50;;;;;;;9.51;100.00;101229.25;5632542;26;19999;-72
2024/04/19 03:46:11;;;;;;;8.07;4.65;;;;;;;9.52;100.00;101228.25;5629869;26;20018;-72
2024/04/19 03:48:41;;;;;;;7.28;3.70;;;;;;;9.53;100.00;101225.41;5633770;26;20464;-73
2024/04/19 03:51:12;;;;;;;11.77;4.20;;;;;;;9.53;100.00;101227.25;5625098;26;19994;-73
2024/04/19 03:53:42;;;;;;;12.18;4.15;;;;;;;9.54;100.00;101219.06;5632771;26;20003;-72
2024/04/19 03:56:13;;;;;;;10.40;4.43;;;;;;;9.45;100.00;101216.47;5629344;26;20044;-72
2024/04/19 03:58:47;;;;;;;8.60;4.07;;;;;;;9.51;100.00;101227.41;5633657;26;19997;-73
2024/04/19 04:01:17;;;;;;;11.90;4.72;;;;;;;9.59;100.00;101218.63;5627703;26;20372;-72
2024/04/19 04:03:52;;;;;;;7.95;3.90;;;;;;;9.57;100.00;101220.59;5629989;26;20014;-72
2024/04/19 04:06:22;;;;;;;6.82;3.78;;;;;;;9.62;100.00;101196.03;5629788;26;20002;-72
2024/04/19 04:08:54;;;;;;;10.75;4.45;;;;;;;9.58;100.00;101200.84;5628685;26;20014;-72
2024/04/19 04:11:24;;;;;;;15.32;5.18;;;;;;;9.58;100.00;101200.84;5632555;26;20133;-72
2024/04/19 04:13:54;;;;;;;10.05;4.63;;;;;;;9.48;100.00;101194.72;5633631;26;20336;-72
2024/04/19 04:16:25;;;;;;;8.88;4.47;;;;;;;9.59;100.00;101199.88;5629320;26;20534;-72
2024/04/19 04:18:55;;;;;;;13.68;5.25;;;;;;;9.55;100.00;101187.78;5633320;26;19998;-73
2024/04/19 04:21:26;;;;;;;14.07;4.90;;;;;;;9.67;100.00;101175.00;5632495;26;20063;-72
2024/04/19 04:23:56;;;;;;;10.93;4.57;;;;;;;9.67;100.00;101172.31;5629483;26;20011;-72
2024/04/19 04:26:27;;;;;;;13.27;5.57;;;;;;;9.65;100.00;101160.94;5629535;26;20003;-72
2024/04/19 04:28:57;;;;;;;9.13;4.95;;;;;;;9.71;100.00;101162.97;5632775;26;20014;-70
2024/04/19 04:31:28;;;;;;;11.50;5.60;;;;;;;9.63;100.00;101155.69;5632419;26;19990;-71
2024/04/19 04:33:58;;;;;;;10.18;5.45;;;;;;;9.71;100.00;101160.31;5631756;26;20034;-70
2024/04/19 04:36:29;;;;;;;12.18;5.07;;;;;;;9.67;100.00;101148.22;5630988;26;19998;-70
2024/04/19 04:38:59;;;;;;;10.13;5.55;;;;;;;9.62;100.00;101139.78;5632915;26;20013;-70
2024/04/19 04:41:30;;;;;;;14.43;5.63;;;;;;;9.70;100.00;101140.72;5631760;26;20040;-70
2024/04/19 04:44:00;;;;;;;10.85;5.53;;;;;;;9.70;100.00;101142.56;5627491;26;20763;-70
2024/04/19 04:46:31;;;;;;;14.20;6.00;;;;;;;9.64;100.00;101143.13;5632994;26;19995;-69
2024/04/19 04:49:01;;;;;;;14.18;5.43;;;;;;;9.75;100.00;101156.34;5630071;26;19999;-73
2024/04/19 04:51:32;;;;;;;13.32;6.85;;;;;;;9.72;100.00;101157.47;5628146;26;20437;-70
2024/04/19 04:54:03;;;;;;;13.07;6.50;;;;;;;9.81;100.00;101161.06;5631290;26;20345;-72
2024/04/19 04:56:33;;;;;;;14.43;7.38;;;;;;;9.81;100.00;101147.66;5636747;26;20006;-72
2024/04/19 04:59:04;;;;;;;21.73;13.80;;;;;;;9.80;100.00;101148.69;5636236;26;20002;-72
2024/04/19 05:01:34;;;;;;;14.93;8.07;;;;;;;9.76;100.00;101141.94;5632448;26;20015;-73
2024/04/19 05:04:05;;;;;;;9.88;6.82;;;;;;;9.83;100.00;101140.31;5636362;26;20076;-70
2024/04/19 05:06:35;;;;;;;13.75;7.78;;;;;;;9.86;100.00;101127.44;5634921;26;20005;-72
2024/04/19 05:09:06;;;;;;;17.30;8.15;;;;;;;9.89;100.00;101129.00;5632895;26;20003;-70
2024/04/19 05:11:36;;;;;;;17.05;7.15;;;;;;;9.87;100.00;101125.63;5635874;26;19999;-71
2024/04/19 05:14:07;;;;;;;13.23;8.57;;;;;;;9.95;100.00;101127.53;5634053;26;20000;-72
2024/04/19 05:16:40;;;;;;;16.60;8.85;;;;;;;9.91;100.00;101132.34;5637129;26;20452;-71
2024/04/19 05:19:10;;;;;;;15.30;8.43;;;;;;;9.90;100.00;101125.31;5633475;26;20006;-70
2024/04/19 05:21:41;;;;;;;19.05;10.15;;;;;;;9.98;100.00;101119.16;5630328;26;20003;-72
2024/04/19 05:24:11;;;;;;;23.35;15.63;;;;;;;10.01;100.00;101125.06;5625351;26;20343;-73
2024/04/19 05:26:42;;;;;;;20.48;13.43;;;;;;;9.97;100.00;101120.16;5635086;26;20007;-72
2024/04/19 05:29:12;;;;;;;15.45;8.10;;;;;;;9.93;100.00;101122.31;5633615;26;20005;-70
2024/04/19 05:31:43;;;;;;;20.60;15.07;;;;;;;10.01;100.00;101119.69;5631983;26;20369;-70
2024/04/19 05:34:13;;;;;;;68.25;40.72;;;;;;;10.03;100.00;101125.72;5635747;26;20044;-70
2024/04/19 05:36:44;;;;;;;44.85;32.47;;;;;;;10.04;100.00;101116.72;5635500;26;20066;-72
2024/04/19 05:39:15;;;;;;;14.30;10.27;;;;;;;10.05;100.00;101125.59;5619767;26;20071;-72
2024/04/19 05:41:45;;;;;;;17.73;10.88;;;;;;;10.14;100.00;101113.94;5612207;26;20002;-73
2024/04/19 05:44:18;;;;;;;16.73;8.55;;;;;;;10.20;100.00;101109.78;5632494;26;19995;-70
2024/04/19 05:46:49;;;;;;;16.92;10.02;;;;;;;10.17;100.00;101118.13;5630781;26;19995;-70
2024/04/19 05:49:22;;;;;;;20.85;10.10;;;;;;;10.17;100.00;101112.78;5629069;26;20088;-70
2024/04/19 05:51:53;;;;;;;20.90;9.25;;;;;;;10.28;100.00;101124.09;5634431;26;19995;-69
2024/04/19 05:54:23;;;;;;;16.67;10.55;;;;;;;10.28;100.00;101115.22;5632172;26;20445;-70
2024/04/19 05:56:54;;;;;;;24.25;12.85;;;;;;;10.28;100.00;101117.91;5633241;26;20003;-71
2024/04/19 05:59:24;;;;;;;21.83;10.82;;;;;;;10.33;100.00;101118.25;5630924;26;20006;-71
2024/04/19 06:01:55;;;;;;;15.88;10.43;;;;;;;10.40;100.00;101110.44;5628746;26;20017;-72
2024/04/19 06:04:25;;;;;;;18.10;10.68;;;;;;;10.38;100.00;101106.06;5631344;26;20015;-71
2024/04/19 06:06:56;;;;;;;19.00;11.27;;;;;;;10.40;100.00;101105.94;5631573;26;19994;-71
2024/04/19 06:09:26;;;;;;;22.15;12.77;;;;;;;10.43;100.00;101102.91;5628708;26;20003;-71
2024/04/19 06:11:59;;;;;;;20.25;11.23;;;;;;;10.40;100.00;101099.72;5628155;26;19999;-71
2024/04/19 06:14:29;;;;;;;23.77;11.60;;;;;;;10.50;100.00;101106.66;5631467;26;20011;-72
2024/04/19 06:17:00;;;;;;;26.83;15.23;;;;;;;10.51;100.00;101115.53;5632723;26;20029;-70
2024/04/19 06:19:31;;;;;;;27.95;18.48;;;;;;;10.61;100.00;101110.91;5632807;26;20083;-70
2024/04/19 06:22:01;;;;;;;48.28;31.80;;;;;;;10.65;100.00;101098.84;5630427;26;19995;-71
2024/04/19 06:24:33;;;;;;;37.97;21.20;;;;;;;10.71;100.00;101097.38;5631870;26;19999;-71
2024/04/19 06:27:04;;;;;;;28.92;15.23;;;;;;;10.71;100.00;101102.72;5632215;26;20018;-71
2024/04/19 06:29:34;;;;;;;29.77;14.82;;;;;;;10.77;100.00;101104.75;5632635;26;20013;-71
2024/04/19 06:32:05;;;;;;;26.92;14.57;;;;;;;10.77;100.00;101091.34;5629867;26;19994;-70
2024/04/19 06:34:36;;;;;;;30.25;15.27;;;;;;;10.77;100.00;101102.06;5630913;26;20017;-71
2024/04/19 06:37:07;;;;;;;33.28;15.68;;;;;;;10.77;100.00;101092.19;5629635;26;20003;-73
2024/04/19 06:39:37;;;;;;;34.80;17.08;;;;;;;10.84;100.00;101090.56;5621253;26;20782;-73
2024/04/19 06:42:08;;;;;;;35.63;16.50;;;;;;;10.91;100.00;101093.41;5627224;26;20390;-72
2024/04/19 06:44:39;;;;;;;38.75;16.95;;;;;;;10.93;100.00;101080.66;5630529;26;20014;-72
2024/04/19 06:47:09;;;;;;;34.28;16.95;;;;;;;10.97;100.00;101095.44;5631460;26;20071;-72
2024/04/19 06:49:40;;;;;;;37.42;17.15;;;;;;;10.99;100.00;101087.22;5632127;26;19999;-72
2024/04/19 06:52:10;;;;;;;36.83;18.67;;;;;;;11.05;100.00;101081.22;5630452;26;20832;-72
2024/04/19 06:54:41;;;;;;;49.42;22.88;;;;;;;11.10;100.00;101082.41;5631702;26;20003;-71
2024/04/19 06:57:11;;;;;;;39.22;21.90;;;;;;;11.12;100.00;101077.69;5631068;26;19991;-71
2024/04/19 06:59:42;;;;;;;88.72;57.42;;;;;;;11.13;100.00;101070.47;5632715;26;20017;-72
2024/04/19 07:02:16;;;;;;;58.88;43.03;;;;;;;11.14;100.00;101072.16;5629885;26;19991;-72
2024/04/19 07:04:46;;;;;;;41.85;22.02;;;;;;;11.17;100.00;101074.53;5597518;26;20369;-72
2024/04/19 07:07:17;;;;;;;37.17;18.17;;;;;;;11.13;100.00;101063.25;5629393;26;20009;-72
2024/04/19 07:09:47;;;;;;;33.40;18.17;;;;;;;11.13;100.00;101060.56;5631564;26;20011;-71
2024/04/19 07:12:18;;;;;;;39.47;17.58;;;;;;;11.16;100.00;101056.75;5628636;26;20002;-71
2024/04/19 07:14:49;;;;;;;36.65;19.00;;;;;;;11.28;100.00;101060.78;5631483;26;20007;-71
2024/04/19 07:17:19;;;;;;;40.53;20.40;;;;;;;11.27;100.00;101066.31;5628171;26;20003;-71
2024/04/19 07:19:50;;;;;;;36.65;16.90;;;;;;;11.35;100.00;101064.50;5623488;26;20003;-71
2024/04/19 07:22:20;;;;;;;39.83;17.27;;;;;;;11.36;100.00;101055.41;5628218;26;20902;-71
2024/04/19 07:24:51;;;;;;;32.70;16.88;;;;;;;11.42;100.00;101059.28;5630941;26;20002;-70
2024/04/19 07:27:21;;;;;;;37.97;18.45;;;;;;;11.49;100.00;101049.53;5630757;26;20125;-71
2024/04/19 07:29:52;;;;;;;38.67;17.38;;;;;;;11.55;100.00;101053.44;5631984;26;20013;-71
2024/04/19 07:32:23;;;;;;;37.08;16.48;;;;;;;11.58;100.00;101051.22;5628462;26;19994;-71
2024/04/19 07:34:53;;;;;;;29.90;14.63;;;;;;;11.63;100.00;101059.63;5626957;26;20341;-71
2024/04/19 07:37:24;;;;;;;39.70;19.25;;;;;;;11.66;100.00;101051.25;5631010;26;19999;-71
2024/04/19 07:39:54;;;;;;;32.85;14.45;;;;;;;11.72;100.00;101051.56;5629012;26;19995;-71
2024/04/19 07:42:27;;;;;;;37.05;16.23;;;;;;;11.81;100.00;101047.88;5627761;26;19999;-71
2024/04/19 07:44:57;;;;;;;32.28;13.90;;;;;;;11.92;100.00;101047.56;5627471;26;19995;-71
2024/04/19 07:47:28;;;;;;;26.30;13.30;;;;;;;12.03;100.00;101041.81;5629432;26;20018;-71
2024/04/19 07:49:58;;;;;;;28.05;13.15;;;;;;;12.04;100.00;101050.72;5628792;26;20076;-71
2024/04/19 07:52:32;;;;;;;44.38;22.58;;;;;;;12.06;100.00;101046.03;5628482;26;19995;-72
2024/04/19 07:55:03;;;;;;;56.42;33.60;;;;;;;12.04;100.00;101037.28;5625751;26;20007;-72
2024/04/19 07:57:34;;;;;;;155.55;83.30;;;;;;;12.04;100.00;101040.78;5624662;26;20006;-71
2024/04/19 08:02:45;;;;;;;29.95;15.15;;;;;;;12.07;100.00;101023.50;5700976;20;20011;-84
2024/04/19 08:05:17;;;;;;;33.83;16.08;;;;;;;12.11;100.00;101022.97;5588068;26;19997;-84
2024/04/19 08:07:50;;;;;;;31.90;13.02;;;;;;;12.22;100.00;101019.09;5549566;26;20016;-82
2024/04/19 08:10:23;;;;;;;28.95;11.68;;;;;;;12.28;100.00;101023.78;5544665;26;20013;-82
2024/04/19 08:12:54;;;;;;;24.23;11.30;;;;;;;12.39;100.00;101011.78;5615232;26;20004;-82
2024/04/19 08:15:24;;;;;;;25.48;12.10;;;;;;;12.46;100.00;101018.16;5550830;26;20012;-81
2024/04/19 08:17:55;;;;;;;29.58;10.18;;;;;;;12.41;100.00;101012.47;5543698;26;20008;-81
2024/04/19 08:20:26;;;;;;;24.45;10.07;;;;;;;12.49;100.00;101003.50;5520635;26;20443;-81
2024/04/19 08:22:56;;;;;;;27.55;10.35;;;;;;;12.48;100.00;101008.06;5548381;26;19997;-81
2024/04/19 08:25:27;;;;;;;28.05;9.40;;;;;;;12.54;100.00;101017.28;5548274;26;20008;-81
2024/04/19 08:27:58;;;;;;;24.52;8.60;;;;;;;12.39;100.00;101009.94;5550205;26;20004;-82
2024/04/19 08:30:29;;;;;;;21.00;8.57;;;;;;;12.44;100.00;101009.41;5552949;26;20000;-82
2024/04/19 08:33:00;;;;;;;20.92;9.18;;;;;;;12.38;100.00;101013.66;5522263;26;20358;-84
2024/04/19 08:35:52;;;;;;;20.08;8.80;;;;;;;12.32;100.00;101008.13;5554324;26;20000;-85
2024/04/19 08:38:25;;;;;;;19.70;8.88;;;;;;;12.26;100.00;101001.59;5544764;26;20026;-84
2024/04/19 08:40:58;;;;;;;20.83;8.77;;;;;;;12.25;100.00;101008.00;5553701;26;20001;-84
2024/04/19 08:43:33;;;;;;;18.00;8.88;;;;;;;12.25;100.00;101007.13;5493611;26;20058;-83
2024/04/19 08:46:08;;;;;;;29.35;9.55;;;;;;;12.23;100.00;101001.09;5552716;26;20032;-83
2024/04/19 08:48:46;;;;;;;19.50;9.02;;;;;;;12.28;100.00;101004.94;5521017;26;20015;-83
2024/04/19 08:51:18;;;;;;;21.58;8.48;;;;;;;12.29;100.00;101008.47;5554084;26;20011;-83
2024/04/19 08:53:51;;;;;;;23.67;9.23;;;;;;;12.28;100.00;101004.09;5553841;26;20407;-82
2024/04/19 08:56:24;;;;;;;19.08;7.85;;;;;;;12.36;100.00;100998.69;5555573;26;20012;-82
2024/04/19 08:58:56;;;;;;;19.90;8.05;;;;;;;12.34;100.00;100998.84;5558374;26;20001;-82
2024/04/19 09:01:54;;;;;;;19.10;6.93;;;;;;;12.44;100.00;100995.97;5555871;26;19996;-87
2024/04/19 09:04:25;;;;;;;17.67;6.80;;;;;;;12.32;100.00;100994.69;5532129;26;20001;-84
2024/04/19 09:06:55;;;;;;;16.45;7.15;;;;;;;12.38;100.00;101002.03;5525430;26;20787;-84
2024/04/19 09:09:27;;;;;;;23.40;10.63;;;;;;;12.25;100.00;100991.84;5566136;26;20404;-84
2024/04/19 09:11:57;;;;;;;10.77;5.90;;;;;;;12.30;100.00;100981.41;5535688;26;20089;-84
2024/04/19 09:14:28;;;;;;;13.13;6.65;;;;;;;12.40;100.00;100989.28;5543323;26;20008;-84
2024/04/19 09:16:58;;;;;;;18.15;5.03;;;;;;;12.34;100.00;100990.78;5538090;26;20303;-84
2024/04/19 09:19:29;;;;;;;13.52;4.00;;;;;;;12.51;100.00;100983.50;5545003;26;19997;-84
2024/04/19 09:22:00;;;;;;;9.65;3.47;;;;;;;12.58;100.00;100970.16;5541846;26;20001;-84
2024/04/19 09:24:30;;;;;;;14.82;4.43;;;;;;;12.68;100.00;100968.09;5543673;26;20070;-84
2024/04/19 09:27:04;;;;;;;11.70;3.00;;;;;;;12.77;100.00;100969.72;5543465;26;20012;-84
2024/04/19 09:29:34;;;;;;;21.75;4.35;;;;;;;12.81;100.00;100973.75;5554467;26;20012;-84
2024/04/19 09:32:05;;;;;;;14.77;4.05;;;;;;;12.91;100.00;100974.34;5542959;26;19997;-83
2024/04/19 09:34:36;;;;;;;18.77;4.95;;;;;;;12.86;100.00;100973.22;5541648;26;20457;-83
2024/04/19 09:37:07;;;;;;;15.82;5.55;;;;;;;12.85;100.00;100971.50;5542156;26;20012;-84
2024/04/19 09:39:38;;;;;;;11.15;3.20;;;;;;;12.62;100.00;100969.66;5619056;26;20076;-84
2024/04/19 09:42:08;;;;;;;14.68;3.58;;;;;;;12.54;100.00;100979.59;5536862;26;20005;-85
2024/04/19 09:44:40;;;;;;;11.05;3.13;;;;;;;12.46;100.00;100983.19;5547339;26;19997;-84
2024/04/19 09:47:12;;;;;;;10.02;2.78;;;;;;;12.36;100.00;100996.00;5549377;26;20012;-85
2024/04/19 09:49:45;;;;;;;16.00;2.97;;;;;;;12.07;100.00;100996.59;5542001;26;20069;-85
2024/04/19 09:52:19;;;;;;;4.78;2.60;;;;;;;11.97;100.00;101012.09;5538488;26;20005;-84
2024/04/19 09:55:06;;;;;;;15.43;3.22;;;;;;;11.89;100.00;101019.16;5543313;26;20001;-85
2024/04/19 09:57:39;;;;;;;11.07;3.33;;;;;;;11.73;100.00;101013.78;5542524;26;20012;-85
2024/04/19 10:00:14;;;;;;;3.95;2.00;;;;;;;11.43;100.00;101004.53;5541994;26;20070;-86
2024/04/19 10:02:50;;;;;;;7.10;2.83;;;;;;;11.29;100.00;101002.53;5526147;26;19996;-85
2024/04/19 10:05:23;;;;;;;6.05;2.50;;;;;;;11.14;100.00;100997.84;5547519;26;20001;-85
2024/04/19 10:15:44;;;;;;;10.55;3.63;;;;;;;11.32;100.00;100994.16;5479756;26;20361;-85
2024/04/19 10:18:16;;;;;;;9.57;3.50;;;;;;;11.42;100.00;100992.13;5487026;26;20005;-84
2024/04/19 10:20:49;;;;;;;8.40;3.63;;;;;;;11.58;100.00;100992.13;5548418;26;20007;-84
2024/04/19 10:23:19;;;;;;;10.23;3.63;;;;;;;11.73;100.00;100994.94;5566545;26;20358;-84
2024/04/19 10:25:50;;;;;;;12.88;3.35;;;;;;;11.97;100.00;100991.41;5594764;26;20677;-84
2024/04/19 10:28:20;;;;;;;12.88;4.20;;;;;;;12.08;100.00;100984.84;5560442;26;20480;-84
2024/04/19 10:30:53;;;;;;;13.80;4.05;;;;;;;12.10;100.00;100983.66;5568221;26;20379;-85
2024/04/19 10:33:25;;;;;;;11.55;4.07;;;;;;;12.25;100.00;100980.22;5593955;26;20000;-84
2024/04/19 10:35:56;;;;;;;11.02;3.47;;;;;;;12.42;100.00;100971.09;5590426;26;20000;-84
2024/04/19 10:38:27;;;;;;;6.75;3.67;;;;;;;12.45;100.00;100970.75;5594182;26;20117;-84
2024/04/19 10:40:58;;;;;;;18.55;4.80;;;;;;;12.48;100.00;100973.06;5599446;26;20011;-84
2024/04/19 10:43:30;;;;;;;12.77;3.72;;;;;;;12.64;100.00;100975.69;5595956;26;20445;-84
2024/04/19 10:46:01;;;;;;;17.50;3.92;;;;;;;12.51;100.00;100971.91;5592550;26;20000;-84
2024/04/19 10:48:40;;;;;;;18.13;3.53;;;;;;;12.53;100.00;100972.56;5593853;26;20068;-84
2024/04/19 10:51:15;;;;;;;16.50;3.60;;;;;;;12.51;100.00;100975.44;5534939;26;20019;-84
2024/04/19 10:53:46;;;;;;;17.50;3.50;;;;;;;12.49;100.00;100985.50;5594835;26;20034;-84
2024/04/19 10:56:16;;;;;;;33.92;16.48;;;;;;;12.47;100.00;100982.16;5596806;26;20067;-84
2024/04/19 10:58:48;;;;;;;13.57;5.68;;;;;;;12.30;100.00;100984.09;5598488;26;20587;-84
2024/04/19 11:01:19;;;;;;;58.10;32.33;;;;;;;12.27;100.00;100979.06;5590120;26;20127;-84
2024/04/19 11:04:11;;;;;;;13.32;3.95;;;;;;;12.24;100.00;100973.19;5599104;26;20004;-84
2024/04/19 11:06:51;;;;;;;11.05;4.13;;;;;;;12.35;100.00;100980.84;5521539;26;20063;-83
2024/04/19 11:09:22;;;;;;;6.90;1.95;;;;;;;12.36;100.00;100977.19;5561712;26;20019;-83
2024/04/19 11:11:52;;;;;;;13.75;2.63;;;;;;;12.27;100.00;100987.13;5558670;26;20360;-83
2024/04/19 11:14:53;;;;;;;10.68;2.03;;;;;;;12.28;100.00;100987.97;5560131;26;20000;-83
2024/04/19 11:17:23;;;;;;;13.98;2.70;;;;;;;12.33;100.00;101001.72;5452259;27;20064;-83
2024/04/19 11:19:54;;;;;;;7.35;2.28;;;;;;;12.27;100.00;101000.56;5560118;26;20000;-83
2024/04/19 11:22:24;;;;;;;12.52;3.28;;;;;;;12.32;100.00;101003.59;5566697;26;20079;-83
2024/04/19 11:24:56;;;;;;;16.48;2.70;;;;;;;12.31;100.00;101001.91;5567207;26;19996;-83
2024/04/19 11:27:26;;;;;;;10.23;2.78;;;;;;;12.32;100.00;101014.34;5538327;26;20007;-83
2024/04/19 11:33:53;;;;;;;208.50;101.25;;;;;;;12.34;100.00;101012.31;5480222;26;20000;-83
2024/04/19 11:36:25;;;;;;;20.63;5.18;;;;;;;12.46;100.00;101006.56;5531720;26;20004;-83
2024/04/19 11:38:56;;;;;;;18.35;2.97;;;;;;;12.56;100.00;101002.66;5564428;26;20077;-82
2024/04/19 11:41:27;;;;;;;17.70;3.70;;;;;;;12.83;100.00;100992.41;5534873;26;20008;-83
2024/04/19 11:43:58;;;;;;;28.85;4.25;;;;;;;13.05;100.00;101006.91;5529252;26;20012;-83
2024/04/19 11:46:29;;;;;;;11.55;4.00;;;;;;;13.31;100.00;101001.22;5535137;26;20036;-83
2024/04/19 11:49:04;;;;;;;21.48;3.22;;;;;;;13.52;100.00;101001.38;5529164;26;20015;-83
2024/04/19 11:51:34;;;;;;;17.38;2.15;;;;;;;13.59;100.00;100996.91;5535111;26;20015;-83